Home > Products > Valid Products > MTR

000
SAUS44 KMRX 011801 COR
MTRGDP
METAR KGDP 011751Z AUTO 27013G20KT 240V300 9SM CLR 33/05 A3015 RMK
AO2 SLP105 T03330050 10339 20206 50003





000
SAUS44 KMRX 010001 COR
MTRGDP
METAR KGDP 312351Z AUTO 24016G24KT 210V270 9SM FEW100 32/05 A3007
RMK AO2 PK WND 25027/2306 SLP082 T03220050 10361 20317 56012





    US Dept of Commerce
    National Oceanic and Atmospheric Administration
    National Weather Service
    1325 East West Highway
    Silver Spring, MD 20910
    Page Author: NWS Internet Services Team
Disclaimer
Information Quality
Credits
Glossary
Privacy Policy
Freedom of Information Act (FOIA)
About Us
Career Opportunities